createdAt,value
2022-10-02T00:01:47.644Z,6.97
2022-10-02T00:04:22.515Z,11.38
2022-10-02T00:06:50.711Z,10.60
2022-10-02T00:09:44.693Z,12.60
2022-10-02T00:12:17.037Z,10.25
2022-10-02T00:14:47.330Z,9.70
2022-10-02T00:17:29.429Z,9.05
2022-10-02T00:19:57.207Z,10.73
2022-10-02T00:22:36.458Z,9.25
2022-10-02T00:25:08.693Z,10.85
2022-10-02T00:27:59.097Z,11.50
2022-10-02T00:30:29.146Z,13.38
2022-10-02T00:33:21.568Z,13.45
2022-10-02T00:36:15.309Z,10.60
2022-10-02T00:39:06.495Z,8.32
2022-10-02T00:42:02.972Z,10.43
2022-10-02T00:44:47.937Z,9.60
2022-10-02T00:47:29.163Z,9.07
2022-10-02T00:50:15.896Z,12.30
2022-10-02T00:53:07.694Z,14.23
2022-10-02T00:55:46.467Z,13.15
2022-10-02T00:58:25.877Z,8.18
2022-10-02T01:01:18.205Z,11.82
2022-10-02T01:03:56.412Z,11.70
2022-10-02T01:06:27.339Z,12.32
2022-10-02T01:08:55.413Z,12.38
2022-10-02T01:11:27.004Z,9.38
2022-10-02T01:13:54.691Z,13.65
2022-10-02T01:16:21.966Z,10.50
2022-10-02T01:18:49.519Z,14.43
2022-10-02T01:21:38.881Z,11.32
2022-10-02T01:24:22.035Z,8.80
2022-10-02T01:26:49.276Z,15.55
2022-10-02T01:29:16.524Z,11.30
2022-10-02T01:31:43.887Z,10.43
2022-10-02T01:34:11.586Z,13.45
2022-10-02T01:36:39.147Z,15.45
2022-10-02T01:39:06.731Z,12.82
2022-10-02T01:41:41.259Z,13.75
2022-10-02T01:44:08.620Z,12.43
2022-10-02T01:46:56.091Z,13.43
2022-10-02T01:49:55.386Z,10.23
2022-10-02T01:52:37.950Z,10.98
2022-10-02T01:55:29.369Z,12.30
2022-10-02T01:58:17.190Z,17.17
2022-10-02T02:01:21.706Z,12.93
2022-10-02T02:04:02.639Z,15.98
2022-10-02T02:07:04.343Z,14.45
2022-10-02T02:10:00.979Z,13.32
2022-10-02T02:12:38.406Z,12.48
2022-10-02T02:15:18.019Z,13.73
2022-10-02T02:18:08.889Z,17.50
2022-10-02T02:20:47.967Z,14.20
2022-10-02T02:23:19.799Z,16.08
2022-10-02T02:25:51.692Z,19.02
2022-10-02T02:28:23.228Z,17.77
2022-10-02T02:30:53.676Z,11.05
2022-10-02T02:33:26.381Z,11.98
2022-10-02T02:36:00.978Z,21.23
2022-10-02T02:38:40.805Z,18.80
2022-10-02T02:41:14.086Z,16.17
2022-10-02T02:44:00.947Z,13.32
2022-10-02T02:46:33.118Z,18.42
2022-10-02T02:49:08.274Z,14.70
2022-10-02T02:51:40.618Z,11.00
2022-10-02T02:54:28.929Z,12.77
2022-10-02T02:56:59.175Z,10.52
2022-10-02T02:59:31.373Z,13.18
2022-10-02T03:01:59.097Z,14.52
2022-10-02T03:04:26.407Z,16.30
2022-10-02T03:07:01.036Z,13.15
2022-10-02T03:09:30.401Z,17.83
2022-10-02T03:12:09.656Z,18.65
2022-10-02T03:14:59.447Z,17.67
2022-10-02T03:18:01.176Z,20.50
2022-10-02T03:20:52.848Z,12.50
2022-10-02T03:23:30.370Z,18.95
2022-10-02T03:26:08.373Z,13.02
2022-10-02T03:28:55.414Z,13.15
2022-10-02T03:31:27.452Z,15.07
2022-10-02T03:33:55.611Z,14.63
2022-10-02T03:36:24.449Z,14.02
2022-10-02T03:39:12.944Z,13.85
2022-10-02T03:41:42.125Z,15.77
2022-10-02T03:44:09.374Z,13.43
2022-10-02T03:46:36.762Z,16.27
2022-10-02T03:49:04.131Z,16.13
2022-10-02T03:51:31.323Z,12.40
2022-10-02T03:53:58.522Z,17.55
2022-10-02T03:56:44.389Z,10.77
2022-10-02T03:59:18.331Z,16.48
2022-10-02T04:01:50.649Z,19.85
2022-10-02T04:04:24.639Z,16.45
2022-10-02T04:06:53.592Z,17.92
2022-10-02T04:09:29.681Z,15.43
2022-10-02T04:12:07.939Z,16.35
2022-10-02T04:14:58.396Z,14.60
2022-10-02T04:17:44.791Z,11.00
2022-10-02T04:20:20.755Z,17.02
2022-10-02T04:22:55.920Z,12.50
2022-10-02T04:25:28.950Z,14.77
2022-10-02T04:28:05.642Z,12.32
2022-10-02T04:30:32.973Z,11.82
2022-10-02T04:33:13.083Z,15.27
2022-10-02T04:35:51.657Z,20.88
2022-10-02T04:38:46.287Z,12.30
2022-10-02T04:41:13.459Z,12.02
2022-10-02T04:43:59.246Z,10.90
2022-10-02T04:46:56.699Z,11.77
2022-10-02T04:49:40.986Z,13.10
2022-10-02T04:52:26.886Z,14.63
2022-10-02T04:55:12.231Z,10.40
2022-10-02T04:58:18.447Z,14.52
2022-10-02T05:00:49.086Z,13.57
2022-10-02T05:03:24.729Z,16.10
2022-10-02T05:06:21.845Z,14.50
2022-10-02T05:08:57.413Z,12.43
2022-10-02T05:11:32.144Z,17.35
2022-10-02T05:14:27.163Z,11.00
2022-10-02T05:16:59.132Z,15.05
2022-10-02T05:19:44.447Z,14.82
2022-10-02T05:22:39.572Z,10.27
2022-10-02T05:25:45.123Z,12.45
2022-10-02T05:28:29.848Z,13.30
2022-10-02T05:31:17.983Z,14.07
2022-10-02T05:34:15.124Z,9.30
2022-10-02T05:36:42.406Z,11.50
2022-10-02T05:39:17.508Z,9.45
2022-10-02T05:42:23.032Z,10.73
2022-10-02T05:45:25.531Z,10.10
2022-10-02T05:48:02.046Z,10.40
2022-10-02T05:50:33.491Z,12.35
2022-10-02T05:53:02.894Z,10.90
2022-10-02T05:55:40.840Z,8.18
2022-10-02T05:58:29.844Z,11.30
2022-10-02T06:01:02.562Z,9.38
2022-10-02T06:03:45.091Z,10.75
2022-10-02T06:06:25.862Z,10.38
2022-10-02T06:09:00.862Z,7.25
2022-10-02T06:11:42.162Z,9.00
2022-10-02T06:14:14.292Z,8.75
2022-10-02T06:16:55.580Z,6.18
2022-10-02T06:19:33.811Z,11.00
2022-10-02T06:22:04.012Z,10.60
2022-10-02T06:24:39.132Z,11.25
2022-10-02T06:27:27.945Z,8.75
2022-10-02T06:30:00.232Z,11.60
2022-10-02T06:32:37.963Z,6.28
2022-10-02T06:35:14.104Z,10.07
2022-10-02T06:38:16.303Z,9.60
2022-10-02T06:41:08.534Z,5.50
2022-10-02T06:43:41.902Z,8.32
2022-10-02T06:46:30.116Z,7.28
2022-10-02T06:49:04.060Z,5.10
2022-10-02T06:51:40.329Z,5.85
2022-10-02T06:54:20.560Z,4.47
2022-10-02T06:56:59.807Z,3.35
2022-10-02T06:59:47.630Z,4.72
2022-10-02T07:02:39.335Z,7.45
2022-10-02T07:05:26.922Z,4.25
2022-10-02T07:08:30.035Z,6.35
2022-10-02T07:11:16.154Z,4.28
2022-10-02T07:13:46.428Z,34.75
2022-10-02T07:16:19.954Z,32.30
2022-10-02T07:19:12.046Z,4.82
2022-10-02T07:22:39.525Z,7.25
2022-10-02T07:25:09.517Z,6.60
2022-10-02T07:27:56.162Z,3.92
2022-10-02T07:30:23.676Z,7.45
2022-10-02T07:33:08.865Z,7.13
2022-10-02T07:35:42.328Z,4.55
2022-10-02T07:38:15.470Z,6.63
2022-10-02T07:41:00.185Z,6.85
2022-10-02T07:43:36.789Z,7.00
2022-10-02T07:46:23.523Z,3.70
2022-10-02T07:49:00.934Z,5.47
2022-10-02T07:51:50.167Z,5.95
2022-10-02T07:54:36.325Z,5.18
2022-10-02T07:57:41.142Z,2.53
2022-10-02T08:00:15.191Z,2.38
2022-10-02T08:03:03.682Z,2.08
2022-10-02T08:05:40.158Z,3.00
2022-10-02T08:08:18.321Z,3.22
2022-10-02T08:10:49.764Z,4.53
2022-10-02T08:13:23.314Z,4.45
2022-10-02T08:15:55.599Z,5.60
2022-10-02T08:18:34.036Z,3.28
2022-10-02T08:21:03.670Z,4.05
2022-10-02T08:23:48.348Z,3.45
2022-10-02T08:26:35.907Z,5.57
2022-10-02T08:29:12.183Z,6.18
2022-10-02T08:31:39.541Z,11.73
2022-10-02T08:34:18.131Z,3.95
2022-10-02T08:37:09.643Z,3.65
2022-10-02T08:39:55.037Z,3.42
2022-10-02T08:42:45.366Z,5.20
2022-10-02T08:45:22.178Z,5.03
2022-10-02T08:48:23.501Z,6.15
2022-10-02T08:51:29.675Z,4.05
2022-10-02T08:54:21.051Z,4.80
2022-10-02T08:57:13.150Z,4.05
2022-10-02T08:59:59.992Z,4.90
2022-10-02T09:02:40.039Z,3.65
2022-10-02T09:05:28.691Z,5.07
2022-10-02T09:08:33.237Z,5.80
2022-10-02T09:11:14.813Z,2.55
2022-10-02T09:14:10.354Z,3.45
2022-10-02T09:16:59.351Z,2.33
2022-10-02T09:19:48.514Z,4.85
2022-10-02T09:22:50.984Z,6.20
2022-10-02T09:25:39.594Z,5.15
2022-10-02T09:28:37.687Z,3.97
2022-10-02T09:31:40.174Z,5.15
2022-10-02T09:34:43.614Z,4.18
2022-10-02T09:37:44.958Z,4.43
2022-10-02T09:40:27.307Z,3.38
2022-10-02T09:43:04.986Z,5.53
2022-10-02T09:46:01.204Z,4.45
2022-10-02T09:49:02.864Z,4.13
2022-10-02T09:52:06.169Z,6.53
2022-10-02T09:54:55.842Z,9.18
2022-10-02T09:57:45.073Z,3.40
2022-10-02T10:00:20.443Z,2.90
2022-10-02T10:03:16.457Z,5.43
2022-10-02T10:06:01.712Z,4.30
2022-10-02T10:08:50.754Z,5.78
2022-10-02T10:11:23.873Z,5.68
2022-10-02T10:14:13.263Z,4.13
2022-10-02T10:17:05.633Z,2.08
2022-10-02T10:19:59.481Z,4.65
2022-10-02T10:23:03.984Z,6.88
2022-10-02T10:26:17.900Z,5.40
2022-10-02T10:28:59.575Z,3.38
2022-10-02T10:32:09.527Z,5.13
2022-10-02T10:34:46.260Z,7.20
2022-10-02T10:38:02.896Z,3.65
2022-10-02T10:40:49.549Z,3.65
2022-10-02T10:43:52.505Z,3.28
2022-10-02T10:46:38.558Z,4.75
2022-10-02T10:49:20.758Z,6.25
2022-10-02T10:52:07.583Z,3.97
2022-10-02T10:54:48.622Z,4.45
2022-10-02T10:57:18.803Z,8.05
2022-10-02T11:00:03.249Z,4.32
2022-10-02T11:03:03.087Z,5.15
2022-10-02T11:06:12.636Z,6.18
2022-10-02T11:08:54.110Z,4.43
2022-10-02T11:11:50.560Z,5.75
2022-10-02T11:14:36.667Z,5.88
2022-10-02T11:17:19.872Z,8.68
2022-10-02T11:20:15.555Z,4.22
2022-10-02T11:23:07.239Z,4.47
2022-10-02T11:25:53.624Z,5.47
2022-10-02T11:28:40.350Z,4.75
2022-10-02T11:31:17.487Z,10.00
2022-10-02T11:34:03.144Z,5.97
2022-10-02T11:36:55.006Z,5.85
2022-10-02T11:39:42.682Z,6.90
2022-10-02T11:42:28.539Z,9.50
2022-10-02T11:45:08.768Z,5.95
2022-10-02T11:48:09.012Z,3.60
2022-10-02T11:51:10.290Z,5.95
2022-10-02T11:53:58.916Z,6.18
2022-10-02T11:56:35.537Z,6.80
2022-10-02T11:59:40.552Z,7.85
2022-10-02T12:02:25.579Z,4.78
2022-10-02T12:04:52.905Z,5.70
2022-10-02T12:07:46.446Z,7.70
2022-10-02T12:10:28.414Z,7.20
2022-10-02T12:13:26.495Z,6.63
2022-10-02T12:15:56.416Z,8.57
2022-10-02T12:18:44.469Z,5.43
2022-10-02T12:22:04.633Z,6.22
2022-10-02T12:25:15.014Z,5.68
2022-10-02T12:28:00.798Z,6.22
2022-10-02T12:30:56.923Z,6.72
2022-10-02T12:33:32.183Z,10.18
2022-10-02T12:36:34.723Z,6.65
2022-10-02T12:39:22.005Z,8.82
2022-10-02T12:42:21.349Z,7.57
2022-10-02T12:45:31.373Z,5.85
2022-10-02T12:48:07.449Z,5.05
2022-10-02T12:51:05.843Z,7.07
2022-10-02T12:54:26.980Z,3.28
2022-10-02T12:57:39.308Z,5.30
2022-10-02T13:00:18.586Z,8.88
2022-10-02T13:03:06.146Z,4.70
2022-10-02T13:05:58.215Z,8.38
2022-10-02T13:08:32.499Z,5.15
2022-10-02T13:11:08.133Z,4.35
2022-10-02T13:14:03.670Z,6.82
2022-10-02T13:16:49.458Z,9.15
2022-10-02T13:19:43.025Z,6.07
2022-10-02T13:22:31.317Z,5.18
2022-10-02T13:25:17.307Z,4.57
2022-10-02T13:27:53.729Z,6.00
2022-10-02T13:30:23.040Z,6.93
2022-10-02T13:33:08.473Z,7.82
2022-10-02T13:36:19.291Z,8.32
2022-10-02T13:38:52.035Z,10.52
2022-10-02T13:41:39.053Z,8.00
2022-10-02T13:44:38.226Z,9.70
2022-10-02T13:47:16.207Z,5.72
2022-10-02T13:50:04.079Z,5.47
2022-10-02T13:52:50.555Z,7.55
2022-10-02T13:55:27.238Z,9.65
2022-10-02T13:58:00.237Z,6.53
2022-10-02T14:00:49.895Z,6.90
2022-10-02T14:03:41.683Z,9.05
2022-10-02T14:06:27.687Z,6.28
2022-10-02T14:09:02.670Z,8.40
2022-10-02T14:12:00.172Z,4.45
2022-10-02T14:14:56.166Z,7.90
2022-10-02T14:17:48.916Z,6.05
2022-10-02T14:20:34.395Z,5.47
2022-10-02T14:23:07.473Z,8.30
2022-10-02T14:25:51.239Z,4.72
2022-10-02T14:28:38.147Z,7.78
2022-10-02T14:31:22.287Z,40.53
2022-10-02T14:34:02.657Z,38.50
2022-10-02T14:36:49.259Z,34.72
2022-10-02T14:39:21.435Z,10.70
2022-10-02T14:41:57.790Z,8.55
2022-10-02T14:44:43.748Z,5.63
2022-10-02T14:47:23.027Z,5.35
2022-10-02T14:50:10.877Z,6.57
2022-10-02T14:52:59.643Z,6.32
2022-10-02T14:56:00.366Z,6.32
2022-10-02T14:58:53.709Z,9.65
2022-10-02T15:01:26.816Z,6.07
2022-10-02T15:04:08.816Z,7.38
2022-10-02T15:06:48.061Z,5.78
2022-10-02T15:09:24.306Z,7.40
2022-10-02T15:12:16.291Z,5.07
2022-10-02T15:15:08.943Z,7.40
2022-10-02T15:17:57.057Z,7.43
2022-10-02T15:20:40.514Z,11.40
2022-10-02T15:23:13.837Z,5.72
2022-10-02T15:26:05.170Z,6.63
2022-10-02T15:28:55.596Z,8.63
2022-10-02T15:31:41.148Z,7.10
2022-10-02T15:34:33.411Z,4.95
2022-10-02T15:37:03.313Z,7.40
2022-10-02T15:39:58.141Z,4.85
2022-10-02T15:42:49.376Z,7.32
2022-10-02T15:45:30.794Z,6.18
2022-10-02T15:48:43.536Z,7.93
2022-10-02T15:51:27.322Z,7.82
2022-10-02T15:54:06.349Z,5.68
2022-10-02T15:56:59.375Z,7.53
2022-10-02T15:59:48.422Z,11.40
2022-10-02T16:02:57.291Z,9.07
2022-10-02T16:05:30.583Z,7.25
2022-10-02T16:08:09.798Z,6.43
2022-10-02T16:11:02.570Z,8.48
2022-10-02T16:13:29.749Z,6.75
2022-10-02T16:16:08.196Z,5.28
2022-10-02T16:19:01.142Z,9.05
2022-10-02T16:21:31.318Z,8.10
2022-10-02T16:24:20.083Z,6.75
2022-10-02T16:27:19.209Z,9.52
2022-10-02T16:30:12.392Z,9.70
2022-10-02T16:33:08.771Z,5.95
2022-10-02T16:35:55.725Z,7.75
2022-10-02T16:38:51.975Z,6.25
2022-10-02T16:41:28.244Z,8.73
2022-10-02T16:44:14.271Z,10.65
2022-10-02T16:47:07.159Z,7.18
2022-10-02T16:50:02.806Z,7.25
2022-10-02T16:52:53.570Z,9.82
2022-10-02T16:55:33.598Z,13.25
2022-10-02T16:58:17.878Z,12.80
2022-10-02T17:01:07.274Z,7.22
2022-10-02T17:04:15.043Z,7.85
2022-10-02T17:06:58.136Z,7.35
2022-10-02T17:09:45.136Z,10.80
2022-10-02T17:12:30.677Z,9.90
2022-10-02T17:15:18.643Z,7.95
2022-10-02T17:18:23.556Z,12.23
2022-10-02T17:20:54.709Z,9.07
2022-10-02T17:23:37.060Z,12.73
2022-10-02T17:26:12.221Z,7.63
2022-10-02T17:28:53.377Z,9.75
2022-10-02T17:31:39.167Z,9.15
2022-10-02T17:34:21.672Z,14.13
2022-10-02T17:37:13.917Z,7.68
2022-10-02T17:39:41.038Z,11.38
2022-10-02T17:42:30.273Z,9.18
2022-10-02T17:45:26.381Z,8.35
2022-10-02T17:48:19.310Z,13.05
2022-10-02T17:50:56.827Z,10.68
2022-10-02T17:54:04.052Z,13.10
2022-10-02T17:56:50.894Z,8.52
2022-10-02T17:59:53.191Z,12.10
2022-10-02T18:02:44.290Z,10.60
2022-10-02T18:05:20.460Z,11.18
2022-10-02T18:08:32.012Z,10.00
2022-10-02T18:11:28.368Z,11.02
2022-10-02T18:14:27.913Z,10.98
2022-10-02T18:17:01.267Z,13.75
2022-10-02T18:20:04.550Z,12.07
2022-10-02T18:22:44.894Z,12.98
2022-10-02T18:25:21.317Z,16.52
2022-10-02T18:28:13.686Z,10.77
2022-10-02T18:31:07.147Z,9.43
2022-10-02T18:34:01.737Z,9.68
2022-10-02T18:37:11.925Z,13.02
2022-10-02T18:39:50.891Z,10.55
2022-10-02T18:42:40.912Z,14.13
2022-10-02T18:45:40.016Z,13.07
2022-10-02T18:48:45.521Z,13.07
2022-10-02T18:51:31.797Z,14.13
2022-10-02T18:54:28.882Z,9.70
2022-10-02T18:57:08.595Z,9.63
2022-10-02T19:00:06.515Z,9.80
2022-10-02T19:03:04.626Z,14.18
2022-10-02T19:05:50.473Z,11.02
2022-10-02T19:08:24.277Z,9.88
2022-10-02T19:10:51.591Z,13.15
2022-10-02T19:13:29.882Z,14.30
2022-10-02T19:15:58.589Z,16.35
2022-10-02T19:18:28.261Z,14.18
2022-10-02T19:21:06.636Z,7.70
2022-10-02T19:23:40.649Z,9.23
2022-10-02T19:26:21.557Z,10.50
2022-10-02T19:29:14.714Z,9.07
2022-10-02T19:31:42.130Z,9.80
2022-10-02T19:34:19.105Z,15.07
2022-10-02T19:36:54.336Z,10.40
2022-10-02T19:39:35.366Z,12.45
2022-10-02T19:42:10.662Z,5.80
2022-10-02T19:44:44.905Z,9.00
2022-10-02T19:47:30.237Z,5.57
2022-10-02T19:49:59.798Z,8.77
2022-10-02T19:52:54.164Z,12.50
2022-10-02T19:55:25.582Z,9.25
2022-10-02T19:58:01.161Z,13.80
2022-10-02T20:00:29.092Z,15.85
2022-10-02T20:02:59.565Z,10.98
2022-10-02T20:05:29.765Z,11.82
2022-10-02T20:08:06.415Z,9.30
2022-10-02T20:10:42.659Z,8.75
2022-10-02T20:13:46.268Z,10.02
2022-10-02T20:16:41.276Z,9.90
2022-10-02T20:19:18.632Z,12.45
2022-10-02T20:21:51.104Z,10.85
2022-10-02T20:24:23.190Z,10.85
2022-10-02T20:26:55.049Z,14.20
2022-10-02T20:29:30.490Z,10.75
2022-10-02T20:32:04.400Z,6.70
2022-10-02T20:34:40.394Z,18.50
2022-10-02T20:37:23.576Z,12.98
2022-10-02T20:39:58.865Z,5.43
2022-10-02T20:42:40.472Z,8.45
2022-10-02T20:45:12.044Z,14.10
2022-10-02T20:48:03.452Z,12.23
2022-10-02T20:50:53.994Z,9.10
2022-10-02T20:53:52.504Z,7.85
2022-10-02T20:56:41.031Z,10.93
2022-10-02T20:59:29.492Z,7.28
2022-10-02T21:02:21.260Z,11.32
2022-10-02T21:05:03.776Z,10.50
2022-10-02T21:07:40.078Z,11.82
2022-10-02T21:10:32.236Z,12.88
2022-10-02T21:13:14.323Z,12.38
2022-10-02T21:16:00.237Z,10.93
2022-10-02T21:18:54.946Z,9.00
2022-10-02T21:21:55.853Z,4.80
2022-10-02T21:25:04.914Z,8.93
2022-10-02T21:27:58.123Z,20.50
2022-10-02T21:30:39.245Z,8.65
2022-10-02T21:33:35.980Z,13.05
2022-10-02T21:36:27.372Z,4.72
2022-10-02T21:39:19.484Z,13.90
2022-10-02T21:42:07.166Z,12.07
2022-10-02T21:44:53.582Z,11.35
2022-10-02T21:47:51.619Z,4.75
2022-10-02T21:50:46.554Z,12.30
2022-10-02T21:53:51.455Z,6.88
2022-10-02T21:56:21.452Z,6.45
2022-10-02T21:59:13.830Z,9.38
2022-10-02T22:02:20.648Z,11.80
2022-10-02T22:05:19.680Z,7.78
2022-10-02T22:07:52.679Z,10.07
2022-10-02T22:10:30.173Z,9.85
2022-10-02T22:13:23.303Z,13.15
2022-10-02T22:16:42.327Z,8.55
2022-10-02T22:19:09.471Z,14.23
2022-10-02T22:22:04.713Z,7.32
2022-10-02T22:24:40.804Z,11.77
2022-10-02T22:27:28.007Z,9.60
2022-10-02T22:29:56.587Z,16.77
2022-10-02T22:32:48.562Z,14.75
2022-10-02T22:35:34.376Z,5.40
2022-10-02T22:38:39.255Z,11.02
2022-10-02T22:41:21.649Z,13.38
2022-10-02T22:44:18.643Z,12.95
2022-10-02T22:46:53.291Z,10.93
2022-10-02T22:49:48.280Z,11.90
2022-10-02T22:52:59.986Z,8.35
2022-10-02T22:55:36.207Z,11.93
2022-10-02T22:58:12.682Z,11.95
2022-10-02T23:00:58.580Z,14.25
2022-10-02T23:03:36.498Z,8.13
2022-10-02T23:06:25.440Z,11.95
2022-10-02T23:09:06.996Z,15.18
2022-10-02T23:11:46.703Z,9.25
2022-10-02T23:14:30.408Z,9.02
2022-10-02T23:17:25.645Z,9.60
2022-10-02T23:20:15.361Z,9.70
2022-10-02T23:23:03.626Z,8.98
2022-10-02T23:26:07.163Z,8.10
2022-10-02T23:28:45.504Z,10.95
2022-10-02T23:31:17.420Z,10.70
2022-10-02T23:34:05.800Z,11.23
2022-10-02T23:36:44.253Z,12.65
2022-10-02T23:39:19.904Z,8.25
2022-10-02T23:41:50.747Z,9.77
2022-10-02T23:44:32.018Z,8.23
2022-10-02T23:47:25.200Z,15.98
2022-10-02T23:49:54.340Z,20.52
2022-10-02T23:52:33.583Z,11.05
2022-10-02T23:55:09.638Z,16.67
2022-10-02T23:57:57.057Z,10.13
